createdAt,value
2019-02-15T00:00:38.038Z,92.39
2019-02-15T00:03:08.033Z,92.43
2019-02-15T00:05:37.008Z,92.39
2019-02-15T00:08:05.973Z,92.44
2019-02-15T00:10:34.819Z,92.22
2019-02-15T00:13:03.707Z,92.17
2019-02-15T00:15:32.384Z,92.14
2019-02-15T00:18:20.287Z,92.19
2019-02-15T00:21:06.341Z,92.46
2019-02-15T00:23:35.235Z,92.49
2019-02-15T00:26:03.860Z,92.44
2019-02-15T00:28:32.501Z,92.82
2019-02-15T00:31:01.880Z,92.47
2019-02-15T00:33:30.781Z,92.56
2019-02-15T00:35:59.939Z,92.63
2019-02-15T00:38:28.847Z,93.25
2019-02-15T00:40:58.195Z,93.54
2019-02-15T00:43:27.116Z,93.87
2019-02-15T00:46:07.315Z,94.08
2019-02-15T00:48:36.191Z,94.09
2019-02-15T00:51:31.739Z,94.07
2019-02-15T00:54:10.002Z,94.03
2019-02-15T00:56:45.827Z,94.14
2019-02-15T00:59:37.031Z,94.33
2019-02-15T01:02:37.001Z,94.23
2019-02-15T01:05:15.686Z,94.22
2019-02-15T01:08:11.552Z,94.22
2019-02-15T01:10:48.823Z,94.29
2019-02-15T01:13:20.387Z,94.42
2019-02-15T01:15:49.240Z,94.46
2019-02-15T01:18:17.909Z,94.48
2019-02-15T01:20:46.565Z,94.46
2019-02-15T01:23:15.667Z,94.53
2019-02-15T01:26:09.714Z,94.57
2019-02-15T01:28:45.543Z,94.59
2019-02-15T01:31:42.457Z,94.72
2019-02-15T01:34:39.366Z,94.68
2019-02-15T01:37:18.691Z,94.90
2019-02-15T01:40:05.014Z,94.99
2019-02-15T01:42:40.741Z,95.06
2019-02-15T01:45:22.660Z,95.23
2019-02-15T01:47:52.182Z,95.23
2019-02-15T01:50:20.858Z,95.19
2019-02-15T01:52:49.736Z,94.99
2019-02-15T01:55:18.663Z,95.01
2019-02-15T01:57:47.362Z,95.05
2019-02-15T02:00:17.751Z,95.14
2019-02-15T02:02:46.925Z,95.20
2019-02-15T02:05:15.553Z,95.09
2019-02-15T02:07:44.548Z,95.12
2019-02-15T02:10:13.256Z,95.24
2019-02-15T02:12:41.994Z,95.36
2019-02-15T02:15:11.691Z,95.34
2019-02-15T02:17:40.615Z,95.44
2019-02-15T02:20:10.006Z,95.47
2019-02-15T02:22:39.000Z,95.47
2019-02-15T02:25:07.831Z,95.56
2019-02-15T02:27:36.490Z,95.50
2019-02-15T02:30:07.276Z,95.68
2019-02-15T02:32:35.963Z,95.75
2019-02-15T02:35:05.195Z,95.74
2019-02-15T02:37:33.848Z,95.82
2019-02-15T02:40:02.504Z,95.73
2019-02-15T02:42:31.890Z,95.83
2019-02-15T02:45:00.815Z,95.92
2019-02-15T02:47:29.757Z,96.00
2019-02-15T02:49:58.678Z,95.91
2019-02-15T02:52:27.590Z,95.98
2019-02-15T02:54:56.462Z,96.10
2019-02-15T02:57:25.392Z,96.16
2019-02-15T02:59:54.283Z,96.19
2019-02-15T03:02:23.686Z,96.28
2019-02-15T03:04:52.338Z,96.37
2019-02-15T03:07:20.999Z,96.40
2019-02-15T03:09:49.895Z,96.43
2019-02-15T03:12:18.549Z,96.29
2019-02-15T03:14:47.454Z,96.36
2019-02-15T03:17:16.067Z,96.41
2019-02-15T03:19:45.000Z,96.45
2019-02-15T03:22:14.210Z,96.39
2019-02-15T03:24:43.386Z,96.42
2019-02-15T03:27:12.007Z,96.36
2019-02-15T03:29:40.917Z,96.30
2019-02-15T03:32:10.163Z,96.33
2019-02-15T03:34:38.811Z,96.36
2019-02-15T03:37:19.950Z,96.29
2019-02-15T03:39:51.465Z,96.29
2019-02-15T03:42:20.115Z,96.18
2019-02-15T03:44:49.247Z,96.14
2019-02-15T03:47:24.007Z,96.13
2019-02-15T03:49:52.954Z,96.10
2019-02-15T03:52:21.623Z,96.00
2019-02-15T03:54:50.492Z,96.03
2019-02-15T03:57:19.781Z,96.01
2019-02-15T03:59:48.754Z,95.98
2019-02-15T04:02:17.679Z,95.88
2019-02-15T04:04:46.365Z,95.87
2019-02-15T04:07:15.007Z,95.70
2019-02-15T04:09:43.964Z,95.68
2019-02-15T04:12:12.607Z,95.74
2019-02-15T04:14:41.856Z,95.61
2019-02-15T04:17:10.776Z,95.46
2019-02-15T04:19:39.954Z,95.54
2019-02-15T04:22:08.906Z,95.46
2019-02-15T04:24:38.064Z,95.38
2019-02-15T04:27:06.982Z,95.53
2019-02-15T04:29:35.622Z,95.43
2019-02-15T04:32:04.820Z,95.32
2019-02-15T04:34:33.490Z,95.02
2019-02-15T04:37:02.425Z,94.61
2019-02-15T04:39:31.086Z,93.97
2019-02-15T04:42:00.206Z,93.79
2019-02-15T04:44:28.856Z,93.60
2019-02-15T04:46:57.540Z,93.46
2019-02-15T04:49:26.194Z,93.26
2019-02-15T04:51:54.840Z,93.09
2019-02-15T04:54:24.024Z,93.10
2019-02-15T04:56:52.671Z,93.14
2019-02-15T04:59:21.358Z,93.23
2019-02-15T05:01:50.031Z,92.97
2019-02-15T05:04:18.937Z,92.68
2019-02-15T05:06:47.628Z,92.47
2019-02-15T05:09:17.112Z,92.52
2019-02-15T05:11:45.770Z,92.54
2019-02-15T05:14:14.696Z,92.39
2019-02-15T05:16:44.180Z,92.40
2019-02-15T05:19:13.568Z,92.38
2019-02-15T05:21:42.591Z,92.44
2019-02-15T05:24:11.762Z,91.78
2019-02-15T05:26:40.392Z,91.49
2019-02-15T05:29:09.304Z,91.21
2019-02-15T05:31:38.218Z,91.45
2019-02-15T05:34:07.116Z,91.17
2019-02-15T05:36:36.079Z,91.20
2019-02-15T05:39:07.186Z,91.07
2019-02-15T05:41:36.073Z,91.05
2019-02-15T05:44:05.019Z,91.36
2019-02-15T05:46:34.367Z,91.08
2019-02-15T05:49:03.492Z,90.96
2019-02-15T05:51:32.437Z,91.08
2019-02-15T05:54:01.379Z,90.92
2019-02-15T05:56:30.072Z,91.21
2019-02-15T05:58:59.212Z,91.10
2019-02-15T06:01:29.349Z,91.06
2019-02-15T06:03:58.289Z,91.18
2019-02-15T06:06:27.141Z,90.89
2019-02-15T06:08:55.801Z,90.90
2019-02-15T06:11:24.679Z,90.84
2019-02-15T06:13:53.839Z,90.80
2019-02-15T06:16:23.004Z,90.68
2019-02-15T06:18:51.907Z,90.68
2019-02-15T06:21:20.816Z,90.21
2019-02-15T06:23:49.760Z,90.21
2019-02-15T06:26:18.675Z,89.88
2019-02-15T06:28:47.813Z,89.88
2019-02-15T06:31:16.707Z,90.15
2019-02-15T06:33:46.164Z,90.69
2019-02-15T06:36:15.079Z,90.79
2019-02-15T06:38:43.748Z,90.49
2019-02-15T06:41:12.697Z,90.46
2019-02-15T06:43:41.813Z,90.51
2019-02-15T06:46:10.531Z,90.67
2019-02-15T06:48:39.205Z,90.74
2019-02-15T06:51:08.091Z,90.40
2019-02-15T06:53:36.720Z,90.05
2019-02-15T06:56:05.466Z,89.99
2019-02-15T06:58:45.242Z,90.34
2019-02-15T07:01:35.050Z,90.18
2019-02-15T07:04:19.263Z,90.48
2019-02-15T07:06:48.260Z,90.15
2019-02-15T07:09:17.414Z,89.81
2019-02-15T07:11:46.306Z,89.31
2019-02-15T07:14:15.214Z,89.82
2019-02-15T07:16:44.117Z,89.89
2019-02-15T07:19:12.853Z,89.46
2019-02-15T07:21:41.778Z,88.67
2019-02-15T07:24:10.412Z,88.71
2019-02-15T07:26:39.544Z,89.30
2019-02-15T07:29:08.687Z,89.15
2019-02-15T07:31:37.594Z,88.45
2019-02-15T07:34:06.523Z,88.25
2019-02-15T07:36:35.185Z,88.03
2019-02-15T07:39:05.099Z,88.09
2019-02-15T07:41:34.277Z,87.94
2019-02-15T07:44:02.959Z,88.02
2019-02-15T07:46:32.081Z,87.94
2019-02-15T07:49:01.448Z,87.91
2019-02-15T07:51:30.634Z,87.94
2019-02-15T07:53:59.800Z,87.79
2019-02-15T07:56:28.678Z,87.57
2019-02-15T07:58:57.335Z,87.61
2019-02-15T08:01:26.477Z,87.97
2019-02-15T08:03:55.606Z,87.06
2019-02-15T08:06:24.653Z,85.88
2019-02-15T08:08:53.556Z,85.32
2019-02-15T08:11:22.500Z,83.41
2019-02-15T08:13:51.148Z,83.44
2019-02-15T08:16:20.030Z,81.83
2019-02-15T08:18:48.919Z,81.02
2019-02-15T08:21:17.806Z,78.90
2019-02-15T08:23:46.680Z,78.48
2019-02-15T08:26:15.315Z,78.22
2019-02-15T08:28:44.246Z,78.17
2019-02-15T08:31:13.129Z,77.93
2019-02-15T08:33:41.748Z,76.84
2019-02-15T08:36:10.414Z,76.84
2019-02-15T08:38:39.306Z,77.60
2019-02-15T08:41:08.190Z,76.17
2019-02-15T08:43:37.361Z,75.20
2019-02-15T08:46:06.097Z,76.77
2019-02-15T08:48:36.177Z,73.17
2019-02-15T08:51:04.958Z,73.17
2019-02-15T08:53:33.844Z,73.23
2019-02-15T08:56:02.988Z,71.93
2019-02-15T08:58:32.431Z,71.93
2019-02-15T09:01:01.592Z,73.00
2019-02-15T09:03:30.492Z,71.83
2019-02-15T09:05:59.153Z,72.31
2019-02-15T09:08:29.939Z,74.38
2019-02-15T09:10:58.687Z,73.24
2019-02-15T09:13:27.298Z,71.89
2019-02-15T09:15:55.959Z,68.15
2019-02-15T09:18:25.092Z,68.57
2019-02-15T09:20:54.456Z,67.49
2019-02-15T09:23:23.406Z,67.29
2019-02-15T09:25:52.068Z,65.83
2019-02-15T09:28:26.327Z,63.47
2019-02-15T09:30:55.543Z,62.75
2019-02-15T09:33:24.236Z,62.56
2019-02-15T09:35:53.193Z,62.26
2019-02-15T09:38:22.104Z,61.13
2019-02-15T09:40:51.279Z,61.58
2019-02-15T09:43:20.156Z,62.55
2019-02-15T09:45:48.900Z,62.40
2019-02-15T09:48:17.815Z,61.50
2019-02-15T09:50:46.419Z,61.48
2019-02-15T09:53:15.314Z,63.04
2019-02-15T09:55:44.480Z,62.55
2019-02-15T09:58:13.363Z,62.38
2019-02-15T10:00:42.021Z,62.38
2019-02-15T10:03:10.905Z,62.29
2019-02-15T10:05:39.542Z,63.10
2019-02-15T10:08:08.200Z,65.18
2019-02-15T10:10:37.130Z,64.72
2019-02-15T10:13:06.494Z,64.03
2019-02-15T10:15:35.670Z,60.90
2019-02-15T10:18:04.907Z,61.49
2019-02-15T10:20:33.527Z,58.98
2019-02-15T10:23:02.176Z,61.60
2019-02-15T10:25:31.574Z,60.45
2019-02-15T10:28:00.297Z,60.49
2019-02-15T10:30:29.202Z,59.62
2019-02-15T10:32:58.331Z,60.27
2019-02-15T10:35:27.249Z,60.18
2019-02-15T10:37:56.117Z,60.09
2019-02-15T10:40:25.072Z,58.45
2019-02-15T10:42:53.981Z,58.19
2019-02-15T10:45:22.613Z,57.19
2019-02-15T10:47:51.286Z,56.51
2019-02-15T10:50:19.935Z,56.10
2019-02-15T10:52:48.577Z,55.89
2019-02-15T10:55:17.717Z,57.96
2019-02-15T10:57:46.641Z,58.34
2019-02-15T11:00:19.581Z,57.49
2019-02-15T11:02:48.496Z,56.99
2019-02-15T11:05:17.690Z,57.85
2019-02-15T11:07:46.920Z,56.67
2019-02-15T11:10:16.150Z,54.66
2019-02-15T11:12:44.896Z,54.62
2019-02-15T11:15:14.162Z,52.83
2019-02-15T11:17:43.581Z,53.78
2019-02-15T11:20:13.600Z,53.66
2019-02-15T11:22:42.506Z,54.34
2019-02-15T11:25:11.536Z,54.14
2019-02-15T11:27:40.781Z,52.55
2019-02-15T11:30:11.717Z,51.89
2019-02-15T11:32:40.630Z,48.38
2019-02-15T11:35:10.871Z,48.55
2019-02-15T11:37:39.795Z,48.80
2019-02-15T11:40:10.394Z,46.69
2019-02-15T11:42:39.546Z,47.92
2019-02-15T11:45:09.447Z,48.66
2019-02-15T11:47:38.624Z,47.17
2019-02-15T11:50:08.402Z,48.37
2019-02-15T11:52:37.389Z,48.04
2019-02-15T11:55:06.589Z,48.08
2019-02-15T11:57:35.842Z,47.55
2019-02-15T12:00:13.818Z,46.92
2019-02-15T12:02:35.413Z,47.49
2019-02-15T12:05:04.115Z,47.54
2019-02-15T12:07:33.014Z,46.73
2019-02-15T12:10:01.659Z,47.58
2019-02-15T12:12:30.513Z,47.75
2019-02-15T12:14:59.713Z,47.37
2019-02-15T12:17:28.597Z,46.68
2019-02-15T12:19:57.487Z,45.87
2019-02-15T12:22:26.419Z,47.13
2019-02-15T12:24:55.285Z,47.81
2019-02-15T12:27:24.473Z,47.31
2019-02-15T12:29:53.398Z,46.49
2019-02-15T12:32:22.265Z,44.72
2019-02-15T12:34:51.360Z,43.87
2019-02-15T12:37:20.262Z,42.20
2019-02-15T12:39:49.399Z,40.32
2019-02-15T12:42:18.343Z,40.55
2019-02-15T12:44:47.688Z,42.32
2019-02-15T12:47:16.298Z,40.08
2019-02-15T12:49:45.125Z,40.67
2019-02-15T12:52:14.076Z,40.48
2019-02-15T12:54:42.945Z,40.83
2019-02-15T12:57:12.172Z,42.35
2019-02-15T12:59:41.091Z,42.18
2019-02-15T13:02:09.978Z,42.74
2019-02-15T13:04:38.905Z,39.62
2019-02-15T13:07:07.607Z,40.49
2019-02-15T13:09:36.573Z,39.03
2019-02-15T13:12:05.201Z,39.34
2019-02-15T13:14:34.089Z,38.91
2019-02-15T13:17:03.013Z,40.35
2019-02-15T13:19:32.150Z,40.70
2019-02-15T13:22:01.029Z,38.94
2019-02-15T13:24:30.190Z,40.08
2019-02-15T13:26:59.148Z,40.63
2019-02-15T13:29:27.789Z,37.25
2019-02-15T13:31:56.444Z,36.85
2019-02-15T13:34:25.331Z,38.70
2019-02-15T13:36:53.968Z,39.88
2019-02-15T13:39:22.877Z,38.48
2019-02-15T13:41:51.546Z,37.09
2019-02-15T13:44:20.473Z,39.16
2019-02-15T13:46:49.130Z,38.11
2019-02-15T13:49:17.824Z,35.41
2019-02-15T13:51:46.716Z,33.30
2019-02-15T13:54:15.670Z,34.26
2019-02-15T13:56:44.557Z,34.35
2019-02-15T13:59:13.446Z,33.58
2019-02-15T14:01:42.306Z,33.87
2019-02-15T14:04:11.003Z,33.68
2019-02-15T14:06:39.920Z,32.78
2019-02-15T14:09:08.996Z,32.11
2019-02-15T14:11:37.878Z,32.28
2019-02-15T14:14:06.591Z,32.28
2019-02-15T14:16:35.220Z,32.32
2019-02-15T14:19:03.868Z,34.04
2019-02-15T14:21:32.724Z,35.44
2019-02-15T14:24:01.642Z,33.67
2019-02-15T14:26:30.773Z,34.37
2019-02-15T14:29:00.170Z,34.47
2019-02-15T14:31:29.372Z,33.58
2019-02-15T14:33:58.327Z,32.04
2019-02-15T14:36:27.307Z,33.59
2019-02-15T14:38:56.495Z,33.18
2019-02-15T14:41:25.439Z,33.87
2019-02-15T14:43:54.661Z,34.71
2019-02-15T14:46:23.804Z,34.92
2019-02-15T14:48:52.739Z,34.67
2019-02-15T14:51:21.896Z,35.36
2019-02-15T14:53:50.556Z,34.83
2019-02-15T14:56:19.217Z,34.35
2019-02-15T14:58:48.404Z,33.85
2019-02-15T15:01:17.082Z,33.57
2019-02-15T15:03:45.949Z,34.13
2019-02-15T15:06:14.594Z,35.36
2019-02-15T15:08:43.212Z,35.15
2019-02-15T15:11:12.132Z,34.23
2019-02-15T15:13:41.047Z,35.28
2019-02-15T15:16:10.145Z,35.04
2019-02-15T15:18:39.070Z,34.95
2019-02-15T15:21:07.981Z,34.04
2019-02-15T15:23:36.893Z,34.91
2019-02-15T15:26:11.524Z,35.59
2019-02-15T15:28:36.424Z,34.63
2019-02-15T15:31:05.553Z,36.69
2019-02-15T15:33:34.701Z,37.13
2019-02-15T15:36:03.594Z,37.11
2019-02-15T15:38:32.730Z,37.57
2019-02-15T15:41:01.853Z,37.81
2019-02-15T15:43:30.510Z,38.10
2019-02-15T15:45:59.302Z,38.46
2019-02-15T15:48:28.177Z,38.11
2019-02-15T15:50:57.087Z,38.94
2019-02-15T15:53:28.574Z,40.71
2019-02-15T15:55:57.493Z,40.84
2019-02-15T15:58:26.154Z,41.38
2019-02-15T16:00:55.134Z,40.84
2019-02-15T16:03:23.779Z,42.26
2019-02-15T16:05:52.684Z,43.19
2019-02-15T16:08:21.569Z,41.85
2019-02-15T16:10:50.465Z,42.68
2019-02-15T16:13:19.422Z,43.40
2019-02-15T16:15:48.307Z,43.68
2019-02-15T16:18:17.223Z,44.73
2019-02-15T16:20:47.155Z,46.10
2019-02-15T16:23:15.799Z,46.06
2019-02-15T16:25:44.703Z,46.11
2019-02-15T16:28:13.339Z,46.58
2019-02-15T16:30:44.374Z,47.37
2019-02-15T16:33:13.027Z,47.32
2019-02-15T16:35:43.339Z,48.03
2019-02-15T16:38:17.389Z,48.77
2019-02-15T16:42:08.793Z,48.76
2019-02-15T16:48:18.264Z,49.17
2019-02-15T16:54:35.683Z,50.02
2019-02-15T16:57:09.444Z,50.31
2019-02-15T16:59:47.366Z,50.70
2019-02-15T17:02:16.305Z,50.64
2019-02-15T17:04:48.465Z,50.78
2019-02-15T17:07:17.540Z,51.11
2019-02-15T17:09:46.267Z,51.42
2019-02-15T17:12:14.948Z,51.67
2019-02-15T17:14:43.956Z,52.02
2019-02-15T17:17:13.127Z,52.75
2019-02-15T17:19:42.142Z,53.30
2019-02-15T17:22:11.097Z,53.43
2019-02-15T17:24:39.741Z,54.59
2019-02-15T17:27:08.922Z,54.59
2019-02-15T17:29:37.918Z,54.59
2019-02-15T17:32:06.832Z,54.92
2019-02-15T17:34:36.060Z,54.68
2019-02-15T17:37:08.611Z,54.68
2019-02-15T17:39:42.280Z,55.28
2019-02-15T17:42:11.252Z,55.45
2019-02-15T17:44:39.932Z,55.79
2019-02-15T17:47:08.804Z,55.18
2019-02-15T17:49:38.396Z,56.68
2019-02-15T17:52:08.968Z,56.68
2019-02-15T17:54:39.260Z,54.58
2019-02-15T17:57:08.512Z,54.87
2019-02-15T17:59:37.290Z,54.96
2019-02-15T18:02:07.970Z,54.78
2019-02-15T18:04:36.980Z,54.80
2019-02-15T18:07:05.921Z,55.01
2019-02-15T18:09:34.853Z,55.35
2019-02-15T18:12:03.586Z,55.19
2019-02-15T18:14:32.569Z,55.01
2019-02-15T18:17:01.286Z,55.24
2019-02-15T18:19:30.559Z,55.29
2019-02-15T18:21:59.806Z,55.64
2019-02-15T18:24:29.178Z,55.84
2019-02-15T18:26:58.031Z,55.86
2019-02-15T18:29:27.184Z,55.59
2019-02-15T18:31:57.756Z,55.98
2019-02-15T18:34:26.943Z,55.94
2019-02-15T18:36:55.946Z,56.09
2019-02-15T18:39:24.626Z,56.24
2019-02-15T18:41:53.596Z,56.77
2019-02-15T18:44:22.778Z,56.39
2019-02-15T18:46:51.757Z,56.70
2019-02-15T18:49:20.978Z,56.75
2019-02-15T18:51:50.056Z,56.91
2019-02-15T18:54:18.786Z,56.84
2019-02-15T18:56:47.758Z,56.82
2019-02-15T18:59:16.672Z,58.40
2019-02-15T19:01:46.256Z,60.82
2019-02-15T19:04:15.212Z,57.89
2019-02-15T19:06:44.163Z,58.34
2019-02-15T19:09:13.375Z,59.17
2019-02-15T19:11:42.333Z,59.31
2019-02-15T19:14:11.045Z,59.32
2019-02-15T19:16:40.559Z,59.49
2019-02-15T19:19:09.562Z,59.30
2019-02-15T19:21:38.554Z,59.30
2019-02-15T19:24:07.551Z,59.50
2019-02-15T19:26:36.696Z,59.82
2019-02-15T19:29:05.858Z,59.65
2019-02-15T19:31:34.811Z,59.41
2019-02-15T19:34:03.706Z,59.17
2019-02-15T19:36:33.159Z,59.11
2019-02-15T19:39:02.348Z,59.49
2019-02-15T19:41:31.509Z,59.41
2019-02-15T19:44:00.419Z,59.17
2019-02-15T19:46:29.097Z,59.01
2019-02-15T19:48:57.957Z,59.13
2019-02-15T19:51:27.105Z,59.00
2019-02-15T19:53:56.106Z,59.99
2019-02-15T19:56:25.204Z,59.99
2019-02-15T19:58:54.352Z,60.93
2019-02-15T20:01:23.290Z,60.93
2019-02-15T20:03:54.831Z,61.70
2019-02-15T20:06:24.059Z,62.09
2019-02-15T20:08:53.295Z,61.61
2019-02-15T20:11:22.177Z,61.61
2019-02-15T20:13:50.821Z,61.30
2019-02-15T20:16:19.752Z,61.30
2019-02-15T20:18:48.396Z,61.68
2019-02-15T20:21:17.602Z,61.67
2019-02-15T20:23:48.040Z,62.01
2019-02-15T20:26:16.944Z,62.45
2019-02-15T20:28:45.855Z,62.28
2019-02-15T20:31:14.611Z,62.28
2019-02-15T20:33:43.507Z,61.48
2019-02-15T20:36:12.619Z,63.41
2019-02-15T20:38:41.598Z,60.47
2019-02-15T20:41:10.243Z,60.47
2019-02-15T20:43:38.940Z,61.14
2019-02-15T20:46:07.876Z,61.75
2019-02-15T20:48:37.030Z,62.71
2019-02-15T20:51:05.918Z,62.83
2019-02-15T20:53:34.591Z,62.83
2019-02-15T20:56:03.524Z,63.13
2019-02-15T20:58:32.768Z,63.13
2019-02-15T21:01:01.790Z,63.25
2019-02-15T21:03:30.986Z,62.76
2019-02-15T21:05:59.943Z,62.76
2019-02-15T21:08:29.154Z,62.63
2019-02-15T21:10:58.132Z,62.53
2019-02-15T21:13:27.059Z,62.10
2019-02-15T21:15:56.783Z,62.10
2019-02-15T21:18:25.679Z,62.00
2019-02-15T21:20:54.553Z,61.63
2019-02-15T21:23:23.215Z,62.41
2019-02-15T21:25:52.114Z,62.41
2019-02-15T21:28:21.024Z,62.13
2019-02-15T21:30:49.934Z,62.13
2019-02-15T21:33:18.816Z,62.73
2019-02-15T21:35:47.732Z,62.66
2019-02-15T21:38:16.408Z,63.04
2019-02-15T21:40:45.715Z,63.04
2019-02-15T21:43:14.873Z,63.64
2019-02-15T21:45:46.266Z,63.64
2019-02-15T21:48:15.469Z,64.25
2019-02-15T21:50:44.105Z,64.43
2019-02-15T21:53:13.046Z,64.79
2019-02-15T21:55:41.712Z,65.11
2019-02-15T21:58:10.867Z,65.38
2019-02-15T22:00:39.901Z,65.63
2019-02-15T22:03:08.778Z,65.63
2019-02-15T22:05:40.023Z,65.87
2019-02-15T22:08:12.370Z,66.70
2019-02-15T22:10:41.799Z,66.70
2019-02-15T22:13:10.435Z,67.32
2019-02-15T22:15:39.377Z,67.83
2019-02-15T22:18:08.289Z,67.58
2019-02-15T22:20:36.924Z,67.58
2019-02-15T22:23:07.130Z,67.48
2019-02-15T22:25:35.807Z,69.78
2019-02-15T22:28:04.446Z,68.88
2019-02-15T22:30:33.110Z,67.90
2019-02-15T22:33:01.975Z,65.58
2019-02-15T22:35:30.602Z,65.54
2019-02-15T22:37:59.780Z,65.54
2019-02-15T22:40:32.845Z,64.75
2019-02-15T22:43:04.830Z,64.91
2019-02-15T22:45:33.942Z,64.82
2019-02-15T22:48:16.310Z,64.54
2019-02-15T22:50:44.952Z,64.35
2019-02-15T22:53:13.828Z,63.58
2019-02-15T22:55:42.737Z,62.45
2019-02-15T22:58:11.641Z,62.45
2019-02-15T23:00:51.896Z,62.77
2019-02-15T23:03:22.974Z,62.88
2019-02-15T23:05:51.967Z,63.38
2019-02-15T23:08:20.859Z,63.38
2019-02-15T23:10:49.561Z,63.63
2019-02-15T23:13:18.763Z,63.65
2019-02-15T23:15:48.108Z,63.87
2019-02-15T23:18:18.932Z,64.40
2019-02-15T23:20:47.305Z,64.52
2019-02-15T23:23:15.968Z,64.23
2019-02-15T23:25:44.686Z,64.85
2019-02-15T23:28:13.553Z,64.81
2019-02-15T23:30:42.469Z,65.23
2019-02-15T23:33:11.365Z,65.33
2019-02-15T23:35:40.078Z,65.41
2019-02-15T23:38:08.745Z,65.41
2019-02-15T23:40:37.638Z,65.42
2019-02-15T23:43:06.514Z,65.40
2019-02-15T23:45:35.505Z,65.40
2019-02-15T23:48:04.397Z,65.39
2019-02-15T23:50:33.261Z,65.42
2019-02-15T23:53:02.183Z,65.09
2019-02-15T23:55:31.077Z,64.58
2019-02-15T23:58:00.065Z,64.53
